Terminal Aerodrome Forecast
Issued by NWS

Current Version | Previous Version | Graphics & Text | Print | Product List | Glossary On
Versions: 1 2 3 4 5 6 7 8 9 10 11 12 13 14 15 16 17 18
000
FTUS41 KRNK 310631 AAA
TAFLWB
TAF AMD
KLWB 310631Z 3107/0106 02004KT 1/2SM FG OVC001
     FM310900 00000KT 1/4SM FG OVC001
     FM311300 05003KT P6SM SCT250
     FM311900 04004KT P6SM BKN050
     FM312300 00000KT P6SM SCT050 BKN100=

USA.gov is the U.S. government's official web portal to all federal, state and local government web resources and services.